Time,TemperatureF,DewpointF,PressureIn,WindDirection,WindDirectionDegrees,WindSpeedMPH,WindSpeedGustMPH,Humidity,HourlyPrecipIn,Conditions,Clouds,dailyrainin,SolarRadiationWatts/m^2,SoftwareType,DateUTC
2013-05-06 00:01:00,63.6,62.4,29.84,SSE,151,0.0,0.0,96,0.00,,---,0.86,0.00,VWS V14.01,2013-05-06 04:01:00,
2013-05-06 00:06:00,63.6,62.4,29.84,SSE,151,1.0,2.0,96,0.00,,---,0.00,0.00,VWS V14.01,2013-05-06 04:06:00,
2013-05-06 00:11:00,63.6,62.4,29.84,SSE,151,1.0,1.0,96,0.00,,---,0.00,0.00,VWS V14.01,2013-05-06 04:11:00,
2013-05-06 00:19:00,63.5,62.3,29.84,SE,126,2.0,2.0,96,0.00,,---,0.00,0.00,VWS V14.01,2013-05-06 04:19:00,
2013-05-06 00:20:00,63.5,62.3,29.84,SE,126,0.0,2.0,96,0.00,,---,0.00,0.00,VWS V14.01,2013-05-06 04:20:00,
2013-05-06 00:25:00,63.5,62.3,29.84,SE,126,0.0,5.0,96,0.00,,---,0.00,0.00,VWS V14.01,2013-05-06 04:25:00,
2013-05-06 00:30:00,63.4,62.2,29.84,SSE,147,0.0,7.0,96,0.00,,---,0.00,0.00,VWS V14.01,2013-05-06 04:30:00,
2013-05-06 00:35:00,63.3,62.1,29.84,SE,126,4.0,5.0,96,0.00,,---,0.00,0.00,VWS V14.01,2013-05-06 04:35:00,
2013-05-06 00:40:00,63.2,62.0,29.84,SE,134,0.0,5.0,96,0.00,,---,0.00,0.00,VWS V14.01,2013-05-06 04:40:00,
2013-05-06 00:45:00,63.2,62.0,29.84,SE,135,1.0,2.0,96,0.00,,---,0.00,0.00,VWS V14.01,2013-05-06 04:45:00,
2013-05-06 00:50:00,63.1,61.9,29.84,SE,134,0.0,5.0,96,0.00,,---,0.00,0.00,VWS V14.01,2013-05-06 04:50:00,
2013-05-06 00:55:00,63.1,61.9,29.84,SE,132,0.0,2.0,96,0.00,,---,0.00,0.00,VWS V14.01,2013-05-06 04:55:00,
2013-05-06 01:00:00,63.1,61.9,29.84,SE,134,0.0,1.0,96,0.00,,---,0.00,0.00,VWS V14.01,2013-05-06 05:00:00,
2013-05-06 01:05:00,63.0,61.8,29.84,SE,140,0.0,6.0,96,0.00,,---,0.00,0.00,VWS V14.01,2013-05-06 05:05:00,
2013-05-06 01:10:00,62.8,61.7,29.84,SE,142,0.0,4.0,96,0.00,,---,0.00,0.00,VWS V14.01,2013-05-06 05:10:00,
2013-05-06 01:15:00,62.6,61.5,29.84,SE,142,0.0,2.0,96,0.00,,---,0.00,0.00,VWS V14.01,2013-05-06 05:15:00,
2013-05-06 01:20:00,62.5,61.3,29.84,SE,136,1.0,6.0,96,0.00,,---,0.00,0.00,VWS V14.01,2013-05-06 05:20:00,
2013-05-06 01:25:00,62.3,61.2,29.84,SE,136,1.0,2.0,96,0.00,,---,0.00,0.00,VWS V14.01,2013-05-06 05:25:00,
2013-05-06 01:31:00,62.2,61.0,29.84,SE,136,2.0,4.0,96,0.00,,---,0.00,0.00,VWS V14.01,2013-05-06 05:31:00,
2013-05-06 01:36:00,62.0,60.8,29.83,SE,134,0.0,4.0,96,0.00,,---,0.00,0.00,VWS V14.01,2013-05-06 05:36:00,
2013-05-06 01:41:00,62.0,60.8,29.83,SE,134,0.0,0.0,96,0.00,,---,0.00,0.00,VWS V14.01,2013-05-06 05:41:00,
2013-05-06 01:46:00,61.9,60.8,29.83,SE,126,0.0,5.0,96,0.00,,---,0.00,0.00,VWS V14.01,2013-05-06 05:46:00,
2013-05-06 01:51:00,61.8,60.7,29.83,SE,134,2.0,5.0,96,0.00,,---,0.00,0.00,VWS V14.01,2013-05-06 05:51:00,
2013-05-06 01:56:00,61.7,60.5,29.83,SE,132,0.0,2.0,96,0.00,,---,0.00,0.00,VWS V14.01,2013-05-06 05:56:00,
2013-05-06 02:01:00,61.6,60.5,29.83,SE,132,1.0,4.0,96,0.00,,---,0.00,0.00,VWS V14.01,2013-05-06 06:01:00,
2013-05-06 02:06:00,61.6,60.5,29.83,SE,132,0.0,2.0,96,0.00,,---,0.00,0.00,VWS V14.01,2013-05-06 06:06:00,
2013-05-06 02:11:00,61.6,60.5,29.83,SE,132,0.0,4.0,96,0.00,,---,0.00,0.00,VWS V14.01,2013-05-06 06:11:00,
2013-05-06 02:16:00,61.5,60.3,29.82,SE,132,0.0,1.0,96,0.00,,---,0.00,0.00,VWS V14.01,2013-05-06 06:16:00,
2013-05-06 02:21:00,61.5,60.3,29.82,SE,132,0.0,1.0,96,0.00,,---,0.00,0.00,VWS V14.01,2013-05-06 06:21:00,
2013-05-06 02:26:00,61.5,60.3,29.82,SE,132,0.0,0.0,96,0.00,,---,0.00,0.00,VWS V14.01,2013-05-06 06:26:00,
2013-05-06 02:31:00,61.5,60.3,29.82,SE,132,0.0,0.0,96,0.00,,---,0.00,0.00,VWS V14.01,2013-05-06 06:31:00,
2013-05-06 02:36:00,61.4,60.2,29.82,SE,132,0.0,0.0,96,0.00,,---,0.00,0.00,VWS V14.01,2013-05-06 06:36:00,
2013-05-06 02:42:00,61.4,60.2,29.81,SE,134,0.0,0.0,96,0.00,,---,0.00,0.00,VWS V14.01,2013-05-06 06:42:00,
2013-05-06 02:47:00,61.4,60.2,29.82,SE,134,0.0,0.0,96,0.00,,---,0.00,0.00,VWS V14.01,2013-05-06 06:47:00,
2013-05-06 02:52:00,61.3,60.2,29.81,SE,132,0.0,0.0,96,0.00,,---,0.00,0.00,VWS V14.01,2013-05-06 06:52:00,
2013-05-06 02:57:00,61.2,60.0,29.81,SE,132,0.0,0.0,96,0.00,,---,0.00,0.00,VWS V14.01,2013-05-06 06:57:00,
2013-05-06 03:02:00,61.1,60.0,29.81,SE,134,0.0,1.0,96,0.00,,---,0.00,0.00,VWS V14.01,2013-05-06 07:02:00,
2013-05-06 03:07:00,60.9,59.8,29.81,SE,134,0.0,0.0,96,0.00,,---,0.00,0.00,VWS V14.01,2013-05-06 07:07:00,
2013-05-06 03:12:00,60.9,59.8,29.81,SE,134,0.0,0.0,96,0.00,,---,0.00,0.00,VWS V14.01,2013-05-06 07:12:00,
2013-05-06 03:17:00,60.7,59.6,29.81,SE,134,0.0,0.0,96,0.00,,---,0.00,0.00,VWS V14.01,2013-05-06 07:17:00,
2013-05-06 03:22:00,60.6,59.5,29.81,SE,134,0.0,0.0,96,0.00,,---,0.00,0.00,VWS V14.01,2013-05-06 07:22:00,
2013-05-06 03:27:00,60.5,59.4,29.81,SE,134,0.0,0.0,96,0.00,,---,0.00,0.00,VWS V14.01,2013-05-06 07:27:00,
2013-05-06 03:32:00,60.4,59.3,29.81,SE,134,0.0,0.0,96,0.00,,---,0.00,0.00,VWS V14.01,2013-05-06 07:32:00,
2013-05-06 03:37:00,60.3,59.2,29.82,SE,134,0.0,0.0,96,0.00,,---,0.00,0.00,VWS V14.01,2013-05-06 07:37:00,
2013-05-06 03:42:00,60.1,59.0,29.82,SE,134,0.0,0.0,96,0.00,,---,0.00,0.00,VWS V14.01,2013-05-06 07:42:00,
2013-05-06 03:47:00,59.9,58.8,29.82,SE,134,0.0,0.0,96,0.00,,---,0.00,0.00,VWS V14.01,2013-05-06 07:47:00,
2013-05-06 03:53:00,59.8,58.7,29.82,SE,134,0.0,0.0,96,0.00,,---,0.00,0.00,VWS V14.01,2013-05-06 07:53:00,
2013-05-06 03:58:00,59.6,58.5,29.82,SE,134,0.0,0.0,96,0.00,,---,0.00,0.00,VWS V14.01,2013-05-06 07:58:00,
2013-05-06 04:03:00,59.5,58.4,29.82,SE,134,0.0,0.0,96,0.00,,---,0.00,0.00,VWS V14.01,2013-05-06 08:03:00,
2013-05-06 04:08:00,59.3,58.2,29.83,SE,134,0.0,0.0,96,0.00,,---,0.00,0.00,VWS V14.01,2013-05-06 08:08:00,
2013-05-06 04:13:00,59.2,58.1,29.83,SE,134,0.0,0.0,96,0.00,,---,0.00,0.00,VWS V14.01,2013-05-06 08:13:00,
2013-05-06 04:18:00,59.0,57.6,29.82,SE,134,0.0,0.0,95,0.00,,---,0.00,0.00,VWS V14.01,2013-05-06 08:18:00,
2013-05-06 04:23:00,58.7,57.3,29.83,SE,134,0.0,0.0,95,0.00,,---,0.00,0.00,VWS V14.01,2013-05-06 08:23:00,
2013-05-06 04:28:00,58.6,57.5,29.83,SE,134,0.0,0.0,96,0.00,,---,0.00,0.00,VWS V14.01,2013-05-06 08:28:00,
2013-05-06 04:33:00,58.4,57.3,29.83,SE,134,0.0,0.0,96,0.00,,---,0.00,0.00,VWS V14.01,2013-05-06 08:33:00,
2013-05-06 04:38:00,58.3,56.9,29.83,SE,134,0.0,0.0,95,0.00,,---,0.00,0.00,VWS V14.01,2013-05-06 08:38:00,
2013-05-06 04:43:00,58.1,56.7,29.83,SE,134,0.0,0.0,95,0.00,,---,0.00,0.00,VWS V14.01,2013-05-06 08:43:00,
2013-05-06 04:48:00,57.8,56.4,29.83,SE,134,1.0,4.0,95,0.00,,---,0.00,0.00,VWS V14.01,2013-05-06 08:48:00,
2013-05-06 04:53:00,57.5,56.1,29.83,SE,134,0.0,0.0,95,0.00,,---,0.00,0.00,VWS V14.01,2013-05-06 08:53:00,
2013-05-06 04:58:00,57.3,55.9,29.83,SE,134,0.0,0.0,95,0.00,,---,0.00,0.00,VWS V14.01,2013-05-06 08:58:00,
2013-05-06 05:04:00,57.1,55.7,29.83,SE,134,0.0,0.0,95,0.00,,---,0.00,0.00,VWS V14.01,2013-05-06 09:04:00,
2013-05-06 05:09:00,56.9,55.5,29.83,SE,134,0.0,0.0,95,0.00,,---,0.00,0.00,VWS V14.01,2013-05-06 09:09:00,
2013-05-06 05:14:00,56.7,55.3,29.83,SE,134,0.0,0.0,95,0.00,,---,0.00,0.00,VWS V14.01,2013-05-06 09:14:00,
2013-05-06 05:19:00,56.5,55.1,29.83,SE,134,0.0,0.0,95,0.00,,---,0.00,0.00,VWS V14.01,2013-05-06 09:19:00,
2013-05-06 05:24:00,56.3,54.9,29.83,SE,134,0.0,0.0,95,0.00,,---,0.00,0.00,VWS V14.01,2013-05-06 09:24:00,
2013-05-06 05:29:00,56.0,54.6,29.84,SE,134,0.0,1.0,95,0.00,,---,0.00,0.00,VWS V14.01,2013-05-06 09:29:00,
2013-05-06 05:34:00,55.8,54.4,29.84,SE,134,1.0,2.0,95,0.00,,---,0.00,0.00,VWS V14.01,2013-05-06 09:34:00,
2013-05-06 05:39:00,55.7,54.3,29.84,SE,134,0.0,1.0,95,0.00,,---,0.00,0.00,VWS V14.01,2013-05-06 09:39:00,
2013-05-06 05:44:00,55.5,54.1,29.84,SE,134,0.0,0.0,95,0.00,,---,0.00,0.00,VWS V14.01,2013-05-06 09:44:00,
2013-05-06 05:49:00,55.4,54.0,29.84,SE,134,0.0,1.0,95,0.00,,---,0.00,0.00,VWS V14.01,2013-05-06 09:49:00,
2013-05-06 05:54:00,55.4,54.0,29.84,SE,134,0.0,0.0,95,0.00,,---,0.00,0.00,VWS V14.01,2013-05-06 09:54:00,
2013-05-06 05:59:00,55.3,53.9,29.84,SE,134,0.0,1.0,95,0.00,,---,0.00,0.00,VWS V14.01,2013-05-06 09:59:00,
2013-05-06 06:05:00,55.2,53.8,29.84,SE,134,0.0,0.0,95,0.00,,---,0.00,0.00,VWS V14.01,2013-05-06 10:05:00,
2013-05-06 06:10:00,55.1,53.7,29.84,SE,134,2.0,2.0,95,0.00,,---,0.00,0.00,VWS V14.01,2013-05-06 10:10:00,
2013-05-06 06:15:00,55.0,53.6,29.84,SE,134,0.0,0.0,95,0.00,,---,0.00,0.00,VWS V14.01,2013-05-06 10:15:00,
2013-05-06 06:20:00,54.9,53.5,29.84,SE,134,0.0,0.0,95,0.00,,---,0.00,0.00,VWS V14.01,2013-05-06 10:20:00,
2013-05-06 06:25:00,54.8,53.4,29.85,SE,134,2.0,2.0,95,0.00,,---,0.00,0.00,VWS V14.01,2013-05-06 10:25:00,
2013-05-06 06:30:00,54.7,53.3,29.85,SE,134,0.0,0.0,95,0.00,,---,0.00,0.00,VWS V14.01,2013-05-06 10:30:00,
2013-05-06 06:35:00,54.6,53.2,29.85,SE,134,0.0,0.0,95,0.00,,---,0.00,0.00,VWS V14.01,2013-05-06 10:35:00,
2013-05-06 06:40:00,54.4,53.0,29.85,SE,134,0.0,0.0,95,0.00,,---,0.00,11.00,VWS V14.01,2013-05-06 10:40:00,
2013-05-06 06:45:00,54.3,52.9,29.85,SE,134,0.0,0.0,95,0.00,,---,0.00,12.00,VWS V14.01,2013-05-06 10:45:00,
2013-05-06 06:50:00,54.2,52.8,29.85,SE,134,2.0,4.0,95,0.00,,---,0.00,16.00,VWS V14.01,2013-05-06 10:50:00,
2013-05-06 06:55:00,54.1,52.7,29.86,SE,134,0.0,4.0,95,0.00,,---,0.00,19.00,VWS V14.01,2013-05-06 10:55:00,
2013-05-06 07:00:00,54.1,52.7,29.86,South,185,1.0,5.0,95,0.00,,---,0.00,33.00,VWS V14.01,2013-05-06 11:00:00,
2013-05-06 07:05:00,54.1,52.7,29.86,SSW,196,3.0,5.0,95,0.00,,---,0.00,32.00,VWS V14.01,2013-05-06 11:05:00,
2013-05-06 07:11:00,54.1,52.7,29.86,SW,221,4.0,7.0,95,0.00,,---,0.00,37.00,VWS V14.01,2013-05-06 11:11:00,
2013-05-06 07:16:00,54.0,52.9,29.86,SW,220,0.0,5.0,96,0.00,,---,0.00,35.00,VWS V14.01,2013-05-06 11:16:00,
2013-05-06 07:21:00,53.9,52.8,29.86,SW,221,4.0,5.0,96,0.00,,---,0.00,37.00,VWS V14.01,2013-05-06 11:21:00,
2013-05-06 07:26:00,53.8,52.4,29.88,SW,230,3.0,7.0,95,0.00,,---,0.00,42.00,VWS V14.01,2013-05-06 11:26:00,
2013-05-06 07:31:00,53.8,52.4,29.88,WSW,240,4.0,7.0,95,0.00,,---,0.00,47.00,VWS V14.01,2013-05-06 11:31:00,
2013-05-06 07:36:00,53.7,52.3,29.88,SW,227,3.0,6.0,95,0.00,,---,0.00,70.00,VWS V14.01,2013-05-06 11:36:00,
2013-05-06 07:41:00,53.7,52.6,29.88,SW,236,4.0,7.0,96,0.00,,---,0.00,91.00,VWS V14.01,2013-05-06 11:41:00,
2013-05-06 07:46:00,53.7,52.6,29.88,WSW,241,5.0,6.0,96,0.00,,---,0.00,81.00,VWS V14.01,2013-05-06 11:46:00,
2013-05-06 07:51:00,53.6,52.5,29.88,SW,221,5.0,12.0,96,0.00,,---,0.00,65.00,VWS V14.01,2013-05-06 11:51:00,
2013-05-06 07:56:00,53.6,52.5,29.89,WSW,241,6.0,6.0,96,0.00,,---,0.00,76.00,VWS V14.01,2013-05-06 11:56:00,
2013-05-06 08:01:00,53.5,52.4,29.89,West,267,4.0,9.0,96,0.00,,---,0.00,58.00,VWS V14.01,2013-05-06 12:01:00,
2013-05-06 08:06:00,53.4,52.0,29.89,West,266,4.0,8.0,95,0.00,,---,0.00,70.00,VWS V14.01,2013-05-06 12:06:00,
2013-05-06 08:11:00,53.3,51.9,29.89,West,261,4.0,6.0,95,0.00,,---,0.00,97.00,VWS V14.01,2013-05-06 12:11:00,
2013-05-06 08:16:00,53.3,52.2,29.89,WSW,258,2.0,2.0,96,0.00,,---,0.00,107.00,VWS V14.01,2013-05-06 12:16:00,
2013-05-06 08:21:00,53.4,52.3,29.88,West,259,3.0,3.0,96,0.00,,---,0.00,178.00,VWS V14.01,2013-05-06 12:21:00,
2013-05-06 08:26:00,53.6,52.5,29.88,WSW,242,3.0,5.0,96,0.00,,---,0.00,183.00,VWS V14.01,2013-05-06 12:26:00,
2013-05-06 08:31:00,53.8,52.7,29.89,WSW,247,6.0,6.0,96,0.00,,---,0.00,216.00,VWS V14.01,2013-05-06 12:31:00,
2013-05-06 08:36:00,53.7,52.3,29.89,WSW,255,6.0,7.0,95,0.00,,---,0.00,185.00,VWS V14.01,2013-05-06 12:36:00,
2013-05-06 08:41:00,53.7,52.3,29.89,WSW,238,5.0,7.0,95,0.00,,---,0.00,183.00,VWS V14.01,2013-05-06 12:41:00,
2013-05-06 08:47:00,53.9,52.5,29.89,WSW,242,5.0,10.0,95,0.00,,---,0.00,202.00,VWS V14.01,2013-05-06 12:47:00,
2013-05-06 08:52:00,54.1,52.7,29.89,West,277,3.0,6.0,95,0.00,,---,0.00,229.00,VWS V14.01,2013-05-06 12:52:00,
2013-05-06 08:57:00,54.0,52.6,29.89,West,269,6.0,8.0,95,0.00,,---,0.00,171.00,VWS V14.01,2013-05-06 12:57:00,
2013-05-06 09:02:00,54.2,52.5,29.89,West,275,7.0,10.0,94,0.00,,---,0.00,524.00,VWS V14.01,2013-05-06 13:02:00,
2013-05-06 09:07:00,54.5,52.8,29.90,WSW,254,4.0,7.0,94,0.00,,---,0.00,557.00,VWS V14.01,2013-05-06 13:07:00,
2013-05-06 09:12:00,54.9,53.2,29.90,West,268,5.0,7.0,94,0.00,,---,0.00,302.00,VWS V14.01,2013-05-06 13:12:00,
2013-05-06 09:17:00,54.9,52.6,29.90,West,259,7.0,9.0,92,0.00,,---,0.00,526.00,VWS V14.01,2013-05-06 13:17:00,
2013-05-06 09:22:00,55.0,52.7,29.91,West,261,4.0,10.0,92,0.00,,---,0.00,225.00,VWS V14.01,2013-05-06 13:22:00,
2013-05-06 09:27:00,54.8,52.2,29.91,West,271,6.0,9.0,91,0.00,,---,0.00,566.00,VWS V14.01,2013-05-06 13:27:00,
2013-05-06 09:32:00,54.9,52.3,29.91,WNW,286,6.0,8.0,91,0.00,,---,0.00,534.00,VWS V14.01,2013-05-06 13:32:00,
2013-05-06 09:37:00,55.1,52.2,29.91,WSW,257,6.0,8.0,90,0.00,,---,0.00,629.00,VWS V14.01,2013-05-06 13:37:00,
2013-05-06 09:42:00,55.5,52.9,29.91,West,262,4.0,8.0,91,0.00,,---,0.00,621.00,VWS V14.01,2013-05-06 13:42:00,
2013-05-06 09:47:00,55.8,52.9,29.91,West,269,3.0,8.0,90,0.00,,---,0.00,670.00,VWS V14.01,2013-05-06 13:47:00,
2013-05-06 09:52:00,56.1,53.2,29.92,West,261,0.0,5.0,90,0.00,,---,0.00,547.00,VWS V14.01,2013-05-06 13:52:00,
2013-05-06 09:57:00,56.4,53.2,29.91,West,275,6.0,7.0,89,0.00,,---,0.00,638.00,VWS V14.01,2013-05-06 13:57:00,
2013-05-06 10:02:00,56.8,53.3,29.91,WSW,252,3.0,6.0,88,0.00,,---,0.00,694.00,VWS V14.01,2013-05-06 14:02:00,
2013-05-06 10:08:00,57.2,53.7,29.91,SSW,207,4.0,8.0,88,0.00,,---,0.00,712.00,VWS V14.01,2013-05-06 14:08:00,
2013-05-06 10:13:00,58.0,54.8,29.91,SW,227,2.0,5.0,89,0.00,,---,0.00,729.00,VWS V14.01,2013-05-06 14:13:00,
2013-05-06 10:18:00,58.4,54.2,29.91,WSW,255,3.0,8.0,86,0.00,,---,0.00,770.00,VWS V14.01,2013-05-06 14:18:00,
2013-05-06 10:23:00,58.8,53.7,29.91,WSW,252,0.0,4.0,83,0.00,,---,0.00,772.00,VWS V14.01,2013-05-06 14:23:00,
2013-05-06 10:28:00,59.4,53.6,29.91,WSW,238,6.0,9.0,81,0.00,,---,0.00,782.00,VWS V14.01,2013-05-06 14:28:00,
2013-05-06 10:33:00,59.9,53.7,29.91,SW,228,8.0,8.0,80,0.00,,---,0.00,798.00,VWS V14.01,2013-05-06 14:33:00,
2013-05-06 10:38:00,60.4,53.2,29.91,WSW,249,5.0,7.0,77,0.00,,---,0.00,823.00,VWS V14.01,2013-05-06 14:38:00,
2013-05-06 10:43:00,60.6,52.3,29.92,SW,235,5.0,8.0,74,0.00,,---,0.00,826.00,VWS V14.01,2013-05-06 14:43:00,
2013-05-06 10:48:00,61.0,52.7,29.91,WSW,245,4.0,7.0,74,0.00,,---,0.00,865.00,VWS V14.01,2013-05-06 14:48:00,
2013-05-06 10:53:00,61.7,53.3,29.92,SW,233,6.0,6.0,74,0.00,,---,0.00,902.00,VWS V14.01,2013-05-06 14:53:00,
2013-05-06 10:58:00,62.2,52.7,29.92,SSW,209,10.0,10.0,71,0.00,,---,0.00,926.00,VWS V14.01,2013-05-06 14:58:00,
2013-05-06 11:03:00,62.4,52.1,29.92,SW,217,7.0,9.0,69,0.00,,---,0.00,925.00,VWS V14.01,2013-05-06 15:03:00,
2013-05-06 11:08:00,62.5,52.6,29.92,SW,219,6.0,6.0,70,0.00,,---,0.00,921.00,VWS V14.01,2013-05-06 15:08:00,
2013-05-06 11:13:00,62.9,52.2,29.92,West,269,5.0,8.0,68,0.00,,---,0.00,923.00,VWS V14.01,2013-05-06 15:13:00,
2013-05-06 11:19:00,62.9,52.6,29.92,West,275,2.0,6.0,69,0.00,,---,0.00,951.00,VWS V14.01,2013-05-06 15:19:00,
2013-05-06 11:24:00,63.1,51.2,29.92,WSW,241,6.0,9.0,65,0.00,,---,0.00,1049.00,VWS V14.01,2013-05-06 15:24:00,
2013-05-06 11:29:00,63.6,53.7,29.92,SW,236,7.0,9.0,70,0.00,,---,0.00,995.00,VWS V14.01,2013-05-06 15:29:00,
2013-05-06 11:34:00,63.7,52.1,29.92,West,262,10.0,13.0,66,0.00,,---,0.00,527.00,VWS V14.01,2013-05-06 15:34:00,
2013-05-06 11:39:00,63.5,52.0,29.92,SW,234,5.0,9.0,66,0.00,,---,0.00,923.00,VWS V14.01,2013-05-06 15:39:00,
2013-05-06 11:44:00,64.0,51.6,29.92,WSW,238,7.0,12.0,64,0.00,,---,0.00,1051.00,VWS V14.01,2013-05-06 15:44:00,
2013-05-06 11:49:00,64.1,50.8,29.92,West,279,8.0,10.0,62,0.00,,---,0.00,796.00,VWS V14.01,2013-05-06 15:49:00,
2013-05-06 11:54:00,64.2,52.2,29.92,SW,232,7.0,11.0,65,0.00,,---,0.00,956.00,VWS V14.01,2013-05-06 15:54:00,
2013-05-06 11:59:00,64.7,51.0,29.92,West,259,11.0,11.0,61,0.00,,---,0.00,958.00,VWS V14.01,2013-05-06 15:59:00,
2013-05-06 12:04:00,64.5,50.3,29.92,WSW,254,5.0,10.0,60,0.00,,---,0.00,327.00,VWS V14.01,2013-05-06 16:04:00,
2013-05-06 12:09:00,64.7,51.4,29.92,SW,227,5.0,8.0,62,0.00,,---,0.00,926.00,VWS V14.01,2013-05-06 16:09:00,
2013-05-06 12:14:00,65.2,52.3,29.92,SW,235,7.0,11.0,63,0.00,,---,0.00,1088.00,VWS V14.01,2013-05-06 16:14:00,
2013-05-06 12:19:00,65.2,51.4,29.91,SSW,211,3.0,11.0,61,0.00,,---,0.00,645.00,VWS V14.01,2013-05-06 16:19:00,
2013-05-06 12:24:00,65.1,52.6,29.92,West,277,6.0,13.0,64,0.00,,---,0.00,1232.00,VWS V14.01,2013-05-06 16:24:00,
2013-05-06 12:29:00,65.1,52.2,29.91,WSW,237,4.0,10.0,63,0.00,,---,0.00,1060.00,VWS V14.01,2013-05-06 16:29:00,
2013-05-06 12:34:00,65.6,50.0,29.91,SSW,211,5.0,13.0,57,0.00,,---,0.00,1037.00,VWS V14.01,2013-05-06 16:34:00,
2013-05-06 12:39:00,65.7,49.6,29.91,WSW,238,8.0,17.0,56,0.00,,---,0.00,991.00,VWS V14.01,2013-05-06 16:39:00,
2013-05-06 12:44:00,65.9,47.8,29.90,SSW,199,11.0,12.0,52,0.00,,---,0.00,1046.00,VWS V14.01,2013-05-06 16:44:00,
2013-05-06 12:50:00,66.1,50.0,29.90,SW,217,4.0,10.0,56,0.00,,---,0.00,1005.00,VWS V14.01,2013-05-06 16:50:00,
2013-05-06 12:55:00,66.5,50.8,29.90,SW,221,2.0,10.0,57,0.00,,---,0.00,1034.00,VWS V14.01,2013-05-06 16:55:00,
2013-05-06 13:00:00,66.8,50.1,29.90,SW,227,8.0,8.0,55,0.00,,---,0.00,1037.00,VWS V14.01,2013-05-06 17:00:00,
2013-05-06 13:05:00,67.0,51.8,29.90,WSW,250,5.0,9.0,58,0.00,,---,0.00,1035.00,VWS V14.01,2013-05-06 17:05:00,
2013-05-06 13:10:00,67.0,49.8,29.90,WSW,253,2.0,11.0,54,0.00,,---,0.00,1034.00,VWS V14.01,2013-05-06 17:10:00,
2013-05-06 13:15:00,67.2,49.5,29.90,WSW,256,8.0,12.0,53,0.00,,---,0.00,1035.00,VWS V14.01,2013-05-06 17:15:00,
2013-05-06 13:20:00,67.2,51.0,29.90,West,259,6.0,11.0,56,0.00,,---,0.00,1035.00,VWS V14.01,2013-05-06 17:20:00,
2013-05-06 13:25:00,67.2,49.5,29.90,West,277,5.0,11.0,53,0.00,,---,0.00,1034.00,VWS V14.01,2013-05-06 17:25:00,
2013-05-06 13:30:00,67.1,49.9,29.90,WNW,297,7.0,10.0,54,0.00,,---,0.00,1028.00,VWS V14.01,2013-05-06 17:30:00,
2013-05-06 13:35:00,67.3,50.1,29.90,SSW,207,11.0,11.0,54,0.00,,---,0.00,1039.00,VWS V14.01,2013-05-06 17:35:00,
2013-05-06 13:40:00,67.9,51.6,29.90,SW,215,6.0,9.0,56,0.00,,---,0.00,1065.00,VWS V14.01,2013-05-06 17:40:00,
2013-05-06 13:45:00,68.1,51.3,29.89,West,277,5.0,10.0,55,0.00,,---,0.00,1109.00,VWS V14.01,2013-05-06 17:45:00,
2013-05-06 13:50:00,68.0,50.8,29.89,West,275,2.0,9.0,54,0.00,,---,0.00,1051.00,VWS V14.01,2013-05-06 17:50:00,
2013-05-06 13:55:00,68.2,50.9,29.89,WNW,285,4.0,11.0,54,0.00,,---,0.00,1144.00,VWS V14.01,2013-05-06 17:55:00,
2013-05-06 14:00:00,68.1,50.8,29.89,West,259,9.0,12.0,54,0.00,,---,0.00,308.00,VWS V14.01,2013-05-06 18:00:00,
2013-05-06 14:05:00,67.6,51.4,29.89,WNW,288,5.0,8.0,56,0.00,,---,0.00,1072.00,VWS V14.01,2013-05-06 18:05:00,
2013-05-06 14:11:00,67.7,51.9,29.88,West,263,7.0,12.0,57,0.00,,---,0.00,1004.00,VWS V14.01,2013-05-06 18:11:00,
2013-05-06 14:16:00,68.3,52.0,29.88,West,266,8.0,13.0,56,0.00,,---,0.00,1011.00,VWS V14.01,2013-05-06 18:16:00,
2013-05-06 14:21:00,68.8,52.5,29.88,WNW,284,7.0,9.0,56,0.00,,---,0.00,1005.00,VWS V14.01,2013-05-06 18:21:00,
2013-05-06 14:26:00,69.0,51.7,29.88,NW,305,0.0,8.0,54,0.00,,---,0.00,995.00,VWS V14.01,2013-05-06 18:26:00,
2013-05-06 14:31:00,69.4,52.0,29.87,SSW,211,4.0,11.0,54,0.00,,---,0.00,1016.00,VWS V14.01,2013-05-06 18:31:00,
2013-05-06 14:36:00,69.6,52.7,29.87,West,281,8.0,10.0,55,0.00,,---,0.00,981.00,VWS V14.01,2013-05-06 18:36:00,
2013-05-06 14:41:00,69.5,50.6,29.87,WSW,257,6.0,14.0,51,0.00,,---,0.00,979.00,VWS V14.01,2013-05-06 18:41:00,
2013-05-06 14:46:00,69.5,52.2,29.88,West,271,7.0,13.0,54,0.00,,---,0.00,979.00,VWS V14.01,2013-05-06 18:46:00,
2013-05-06 14:51:00,69.6,51.7,29.88,WSW,246,4.0,11.0,53,0.00,,---,0.00,970.00,VWS V14.01,2013-05-06 18:51:00,
2013-05-06 14:56:00,69.9,49.3,29.87,WSW,240,11.0,11.0,48,0.00,,---,0.00,954.00,VWS V14.01,2013-05-06 18:56:00,
2013-05-06 15:01:00,70.0,51.1,29.87,WSW,254,8.0,13.0,51,0.00,,---,0.00,946.00,VWS V14.01,2013-05-06 19:01:00,
2013-05-06 15:06:00,70.1,52.7,29.87,SW,226,12.0,13.0,54,0.00,,---,0.00,838.00,VWS V14.01,2013-05-06 19:06:00,
2013-05-06 15:11:00,70.4,51.4,29.87,WSW,252,8.0,8.0,51,0.00,,---,0.00,896.00,VWS V14.01,2013-05-06 19:11:00,
2013-05-06 15:16:00,70.4,52.5,29.87,SW,226,6.0,6.0,53,0.00,,---,0.00,851.00,VWS V14.01,2013-05-06 19:16:00,
2013-05-06 15:21:00,70.6,52.1,29.87,SSW,207,5.0,11.0,52,0.00,,---,0.00,814.00,VWS V14.01,2013-05-06 19:21:00,
2013-05-06 15:26:00,70.7,50.6,29.86,West,280,11.0,11.0,49,0.00,,---,0.00,765.00,VWS V14.01,2013-05-06 19:26:00,
2013-05-06 15:31:00,70.4,50.9,29.86,WSW,258,7.0,10.0,50,0.00,,---,0.00,733.00,VWS V14.01,2013-05-06 19:31:00,
2013-05-06 15:36:00,70.3,50.8,29.86,NW,318,3.0,4.0,50,0.00,,---,0.00,721.00,VWS V14.01,2013-05-06 19:36:00,
2013-05-06 15:42:00,70.1,50.6,29.85,West,263,8.0,12.0,50,0.00,,---,0.00,336.00,VWS V14.01,2013-05-06 19:42:00,
2013-05-06 15:47:00,69.9,50.4,29.86,West,281,7.0,10.0,50,0.00,,---,0.00,693.00,VWS V14.01,2013-05-06 19:47:00,
2013-05-06 15:52:00,70.2,51.2,29.86,West,259,6.0,11.0,51,0.00,,---,0.00,738.00,VWS V14.01,2013-05-06 19:52:00,
2013-05-06 15:57:00,70.6,51.6,29.85,SW,234,6.0,9.0,51,0.00,,---,0.00,751.00,VWS V14.01,2013-05-06 19:57:00,
2013-05-06 16:02:00,71.0,50.3,29.85,WSW,247,9.0,10.0,48,0.00,,---,0.00,779.00,VWS V14.01,2013-05-06 20:02:00,
2013-05-06 16:07:00,70.9,51.3,29.85,SW,234,4.0,6.0,50,0.00,,---,0.00,105.00,VWS V14.01,2013-05-06 20:07:00,
2013-05-06 16:12:00,70.5,51.0,29.85,WSW,248,4.0,7.0,50,0.00,,---,0.00,861.00,VWS V14.01,2013-05-06 20:12:00,
2013-05-06 16:17:00,70.4,50.3,29.85,WSW,248,4.0,10.0,49,0.00,,---,0.00,162.00,VWS V14.01,2013-05-06 20:17:00,
2013-05-06 16:22:00,70.4,50.9,29.85,WSW,256,9.0,10.0,50,0.00,,---,0.00,891.00,VWS V14.01,2013-05-06 20:22:00,
2013-05-06 16:27:00,70.4,50.9,29.85,WSW,242,4.0,7.0,50,0.00,,---,0.00,190.00,VWS V14.01,2013-05-06 20:27:00,
2013-05-06 16:32:00,70.3,50.3,29.85,West,263,9.0,9.0,49,0.00,,---,0.00,816.00,VWS V14.01,2013-05-06 20:32:00,
2013-05-06 16:37:00,70.4,49.2,29.85,WSW,242,7.0,13.0,47,0.00,,---,0.00,773.00,VWS V14.01,2013-05-06 20:37:00,
2013-05-06 16:42:00,70.5,49.9,29.85,SW,236,5.0,12.0,48,0.00,,---,0.00,737.00,VWS V14.01,2013-05-06 20:42:00,
2013-05-06 16:48:00,70.5,50.4,29.85,WSW,252,8.0,15.0,49,0.00,,---,0.00,735.00,VWS V14.01,2013-05-06 20:48:00,
2013-05-06 16:53:00,70.6,52.1,29.85,WSW,246,10.0,10.0,52,0.00,,---,0.00,721.00,VWS V14.01,2013-05-06 20:53:00,
2013-05-06 16:58:00,70.9,49.7,29.85,WSW,252,6.0,10.0,47,0.00,,---,0.00,677.00,VWS V14.01,2013-05-06 20:58:00,
2013-05-06 17:03:00,70.8,49.6,29.85,West,261,7.0,11.0,47,0.00,,---,0.00,608.00,VWS V14.01,2013-05-06 21:03:00,
2013-05-06 17:08:00,70.5,51.0,29.85,SW,217,7.0,7.0,50,0.00,,---,0.00,605.00,VWS V14.01,2013-05-06 21:08:00,
2013-05-06 17:13:00,70.6,50.0,29.86,SW,228,7.0,12.0,48,0.00,,---,0.00,510.00,VWS V14.01,2013-05-06 21:13:00,
2013-05-06 17:18:00,70.3,50.8,29.86,SW,236,8.0,9.0,50,0.00,,---,0.00,163.00,VWS V14.01,2013-05-06 21:18:00,
2013-05-06 17:23:00,69.8,49.8,29.86,WSW,252,7.0,8.0,49,0.00,,---,0.00,271.00,VWS V14.01,2013-05-06 21:23:00,
2013-05-06 17:28:00,69.4,49.4,29.86,SW,236,8.0,12.0,49,0.00,,---,0.00,380.00,VWS V14.01,2013-05-06 21:28:00,
2013-05-06 17:33:00,69.4,50.5,29.86,WSW,244,9.0,9.0,51,0.00,,---,0.00,408.00,VWS V14.01,2013-05-06 21:33:00,
2013-05-06 17:38:00,69.5,51.1,29.86,WSW,243,4.0,7.0,52,0.00,,---,0.00,592.00,VWS V14.01,2013-05-06 21:38:00,
2013-05-06 17:43:00,69.8,51.4,29.86,WSW,250,6.0,8.0,52,0.00,,---,0.00,568.00,VWS V14.01,2013-05-06 21:43:00,
2013-05-06 17:48:00,70.2,50.7,29.86,WSW,246,11.0,15.0,50,0.00,,---,0.00,127.00,VWS V14.01,2013-05-06 21:48:00,
2013-05-06 17:53:00,69.5,50.6,29.86,WSW,257,6.0,8.0,51,0.00,,---,0.00,148.00,VWS V14.01,2013-05-06 21:53:00,
2013-05-06 17:58:00,69.3,50.4,29.86,West,275,9.0,12.0,51,0.00,,---,0.00,475.00,VWS V14.01,2013-05-06 21:58:00,
2013-05-06 18:04:00,69.4,50.5,29.86,West,266,10.0,14.0,51,0.00,,---,0.00,322.00,VWS V14.01,2013-05-06 22:04:00,
2013-05-06 18:09:00,69.3,50.4,29.86,West,274,5.0,12.0,51,0.00,,---,0.00,174.00,VWS V14.01,2013-05-06 22:09:00,
2013-05-06 18:14:00,68.7,50.4,29.86,WSW,250,5.0,9.0,52,0.00,,---,0.00,151.00,VWS V14.01,2013-05-06 22:14:00,
2013-05-06 18:19:00,68.1,50.3,29.87,WSW,258,8.0,12.0,53,0.00,,---,0.00,120.00,VWS V14.01,2013-05-06 22:19:00,
2013-05-06 18:24:00,67.6,49.9,29.87,WSW,250,6.0,10.0,53,0.00,,---,0.00,113.00,VWS V14.01,2013-05-06 22:24:00,
2013-05-06 18:29:00,67.1,50.4,29.87,WSW,255,5.0,7.0,55,0.00,,---,0.00,120.00,VWS V14.01,2013-05-06 22:29:00,
2013-05-06 18:34:00,66.9,50.7,29.87,WSW,252,4.0,7.0,56,0.00,,---,0.00,146.00,VWS V14.01,2013-05-06 22:34:00,
2013-05-06 18:39:00,66.6,50.9,29.87,WSW,253,4.0,6.0,57,0.00,,---,0.00,179.00,VWS V14.01,2013-05-06 22:39:00,
2013-05-06 18:44:00,66.6,50.9,29.87,WSW,246,4.0,7.0,57,0.00,,---,0.00,190.00,VWS V14.01,2013-05-06 22:44:00,
2013-05-06 18:49:00,66.5,51.3,29.87,WSW,241,5.0,8.0,58,0.00,,---,0.00,169.00,VWS V14.01,2013-05-06 22:49:00,
2013-05-06 18:54:00,66.5,52.2,29.87,WSW,251,4.0,7.0,60,0.00,,---,0.00,174.00,VWS V14.01,2013-05-06 22:54:00,
2013-05-06 18:59:00,66.4,51.2,29.87,WSW,250,6.0,9.0,58,0.00,,---,0.00,135.00,VWS V14.01,2013-05-06 22:59:00,
2013-05-06 19:04:00,66.2,51.9,29.87,WSW,250,5.0,8.0,60,0.00,,---,0.00,114.00,VWS V14.01,2013-05-06 23:04:00,
2013-05-06 19:09:00,66.0,51.7,29.87,WSW,254,5.0,12.0,60,0.00,,---,0.00,107.00,VWS V14.01,2013-05-06 23:09:00,
2013-05-06 19:15:00,65.6,51.4,29.87,WSW,258,3.0,10.0,60,0.00,,---,0.00,105.00,VWS V14.01,2013-05-06 23:15:00,
2013-05-06 19:20:00,65.4,51.2,29.88,West,267,3.0,8.0,60,0.00,,---,0.00,98.00,VWS V14.01,2013-05-06 23:20:00,
2013-05-06 19:25:00,65.2,51.4,29.88,WNW,285,4.0,7.0,61,0.00,,---,0.00,90.00,VWS V14.01,2013-05-06 23:25:00,
2013-05-06 19:30:00,65.0,50.8,29.88,West,266,4.0,8.0,60,0.00,,---,0.00,76.00,VWS V14.01,2013-05-06 23:30:00,
2013-05-06 19:35:00,64.7,51.0,29.88,West,267,2.0,7.0,61,0.00,,---,0.00,53.00,VWS V14.01,2013-05-06 23:35:00,
2013-05-06 19:40:00,64.5,51.2,29.88,West,267,0.0,6.0,62,0.00,,---,0.00,40.00,VWS V14.01,2013-05-06 23:40:00,
2013-05-06 19:45:00,64.3,51.5,29.88,West,267,0.0,4.0,63,0.00,,---,0.00,33.00,VWS V14.01,2013-05-06 23:45:00,
2013-05-06 19:50:00,64.0,51.6,29.89,West,267,1.0,3.0,64,0.00,,---,0.00,21.00,VWS V14.01,2013-05-06 23:50:00,
2013-05-06 19:55:00,63.7,51.7,29.89,West,267,0.0,2.0,65,0.00,,---,0.00,16.00,VWS V14.01,2013-05-06 23:55:00,
2013-05-06 20:00:00,63.5,51.5,29.89,West,267,0.0,0.0,65,0.00,,---,0.00,9.00,VWS V14.01,2013-05-07 00:00:00,
2013-05-06 20:05:00,63.2,52.1,29.89,West,265,0.0,1.0,67,0.00,,---,0.00,7.00,VWS V14.01,2013-05-07 00:05:00,
2013-05-06 20:10:00,62.9,52.2,29.89,West,265,0.0,3.0,68,0.00,,---,0.00,0.00,VWS V14.01,2013-05-07 00:10:00,
2013-05-06 20:15:00,62.7,52.4,29.89,West,265,0.0,0.0,69,0.00,,---,0.00,0.00,VWS V14.01,2013-05-07 00:15:00,
2013-05-06 20:20:00,62.4,52.1,29.89,West,265,0.0,1.0,69,0.00,,---,0.00,0.00,VWS V14.01,2013-05-07 00:20:00,
2013-05-06 20:26:00,62.1,52.2,29.89,West,265,0.0,0.0,70,0.00,,---,0.00,0.00,VWS V14.01,2013-05-07 00:26:00,
2013-05-06 20:31:00,61.8,52.3,29.89,West,265,3.0,4.0,71,0.00,,---,0.00,0.00,VWS V14.01,2013-05-07 00:31:00,
2013-05-06 20:36:00,61.4,51.5,29.90,West,264,3.0,5.0,70,0.00,,---,0.00,0.00,VWS V14.01,2013-05-07 00:36:00,
2013-05-06 20:41:00,61.1,51.6,29.90,West,264,0.0,4.0,71,0.00,,---,0.00,0.00,VWS V14.01,2013-05-07 00:41:00,
2013-05-06 20:46:00,60.8,51.3,29.90,West,264,0.0,3.0,71,0.00,,---,0.00,0.00,VWS V14.01,2013-05-07 00:46:00,
2013-05-06 20:51:00,60.6,51.5,29.90,West,265,2.0,5.0,72,0.00,,---,0.00,0.00,VWS V14.01,2013-05-07 00:51:00,
2013-05-06 20:56:00,60.4,51.3,29.90,West,265,3.0,4.0,72,0.00,,---,0.00,0.00,VWS V14.01,2013-05-07 00:56:00,
2013-05-06 21:01:00,60.2,51.2,29.90,West,259,4.0,6.0,72,0.00,,---,0.00,0.00,VWS V14.01,2013-05-07 01:01:00,
2013-05-06 21:06:00,60.0,51.0,29.91,West,259,0.0,4.0,72,0.00,,---,0.00,0.00,VWS V14.01,2013-05-07 01:06:00,
2013-05-06 21:11:00,59.9,51.2,29.91,West,259,0.0,2.0,73,0.00,,---,0.00,0.00,VWS V14.01,2013-05-07 01:11:00,
2013-05-06 21:16:00,59.9,51.6,29.91,West,259,1.0,1.0,74,0.00,,---,0.00,0.00,VWS V14.01,2013-05-07 01:16:00,
2013-05-06 21:21:00,59.8,51.5,29.91,West,259,0.0,0.0,74,0.00,,---,0.00,0.00,VWS V14.01,2013-05-07 01:21:00,
2013-05-06 21:26:00,59.7,51.4,29.91,West,259,0.0,0.0,74,0.00,,---,0.00,0.00,VWS V14.01,2013-05-07 01:26:00,
2013-05-06 21:31:00,59.6,51.7,29.91,West,259,0.0,0.0,75,0.00,,---,0.00,0.00,VWS V14.01,2013-05-07 01:31:00,
2013-05-06 21:36:00,59.5,51.9,29.91,West,259,0.0,0.0,76,0.00,,---,0.00,0.00,VWS V14.01,2013-05-07 01:36:00,
2013-05-06 21:41:00,59.4,51.8,29.92,West,259,0.0,0.0,76,0.00,,---,0.00,0.00,VWS V14.01,2013-05-07 01:41:00,
2013-05-06 21:46:00,59.3,52.5,29.92,West,259,0.0,0.0,78,0.00,,---,0.00,0.00,VWS V14.01,2013-05-07 01:46:00,
2013-05-06 21:52:00,59.1,52.3,29.92,West,259,0.0,0.0,78,0.00,,---,0.00,0.00,VWS V14.01,2013-05-07 01:52:00,
2013-05-06 21:57:00,58.9,52.4,29.92,West,259,0.0,0.0,79,0.00,,---,0.00,0.00,VWS V14.01,2013-05-07 01:57:00,
2013-05-06 22:02:00,58.8,52.0,29.93,West,259,0.0,0.0,78,0.00,,---,0.00,0.00,VWS V14.01,2013-05-07 02:02:00,
2013-05-06 22:07:00,58.6,51.8,29.92,West,259,0.0,0.0,78,0.00,,---,0.00,0.00,VWS V14.01,2013-05-07 02:07:00,
2013-05-06 22:12:00,58.4,51.9,29.93,West,259,0.0,0.0,79,0.00,,---,0.00,0.00,VWS V14.01,2013-05-07 02:12:00,
2013-05-06 22:17:00,58.3,51.8,29.93,West,259,0.0,0.0,79,0.00,,---,0.00,0.00,VWS V14.01,2013-05-07 02:17:00,
2013-05-06 22:22:00,58.1,52.0,29.94,West,259,0.0,0.0,80,0.00,,---,0.00,0.00,VWS V14.01,2013-05-07 02:22:00,
2013-05-06 22:27:00,57.9,52.1,29.94,West,259,0.0,0.0,81,0.00,,---,0.00,0.00,VWS V14.01,2013-05-07 02:27:00,
2013-05-06 22:32:00,57.7,52.2,29.94,West,259,0.0,0.0,82,0.00,,---,0.00,0.00,VWS V14.01,2013-05-07 02:32:00,
2013-05-06 22:37:00,57.5,52.4,29.94,West,259,0.0,0.0,83,0.00,,---,0.00,0.00,VWS V14.01,2013-05-07 02:37:00,
2013-05-06 22:42:00,57.3,52.5,29.94,West,259,0.0,0.0,84,0.00,,---,0.00,0.00,VWS V14.01,2013-05-07 02:42:00,
2013-05-06 22:47:00,57.2,53.1,29.94,West,259,0.0,1.0,86,0.00,,---,0.00,0.00,VWS V14.01,2013-05-07 02:47:00,
2013-05-06 22:52:00,57.1,53.3,29.93,West,259,0.0,0.0,87,0.00,,---,0.00,0.00,VWS V14.01,2013-05-07 02:52:00,
2013-05-06 22:57:00,56.9,53.1,29.93,West,259,0.0,0.0,87,0.00,,---,0.00,0.00,VWS V14.01,2013-05-07 02:57:00,
2013-05-06 23:03:00,56.8,53.3,29.93,West,259,0.0,0.0,88,0.00,,---,0.00,0.00,VWS V14.01,2013-05-07 03:03:00,
2013-05-06 23:08:00,56.7,53.2,29.93,West,259,0.0,0.0,88,0.00,,---,0.00,0.00,VWS V14.01,2013-05-07 03:08:00,
2013-05-06 23:13:00,56.5,52.7,29.93,West,259,0.0,0.0,87,0.00,,---,0.00,0.00,VWS V14.01,2013-05-07 03:13:00,
2013-05-06 23:18:00,56.3,52.5,29.93,West,259,0.0,0.0,87,0.00,,---,0.00,0.00,VWS V14.01,2013-05-07 03:18:00,
2013-05-06 23:23:00,56.1,52.3,29.93,West,259,0.0,0.0,87,0.00,,---,0.00,0.00,VWS V14.01,2013-05-07 03:23:00,
2013-05-06 23:28:00,56.0,51.9,29.93,West,259,1.0,2.0,86,0.00,,---,0.00,0.00,VWS V14.01,2013-05-07 03:28:00,
2013-05-06 23:33:00,56.0,51.9,29.93,West,259,0.0,0.0,86,0.00,,---,0.00,0.00,VWS V14.01,2013-05-07 03:33:00,
2013-05-06 23:38:00,56.0,51.9,29.93,West,259,0.0,0.0,86,0.00,,---,0.00,0.00,VWS V14.01,2013-05-07 03:38:00,
2013-05-06 23:43:00,55.9,51.8,29.93,West,259,0.0,1.0,86,0.00,,---,0.00,0.00,VWS V14.01,2013-05-07 03:43:00,
2013-05-06 23:48:00,55.9,51.8,29.93,West,259,2.0,2.0,86,0.00,,---,0.00,0.00,VWS V14.01,2013-05-07 03:48:00,
2013-05-06 23:53:00,55.8,51.7,29.92,West,259,0.0,3.0,86,0.00,,---,0.00,0.00,VWS V14.01,2013-05-07 03:53:00,
2013-05-06 23:58:00,55.7,51.6,29.92,West,259,0.0,0.0,86,0.00,,---,0.00,0.00,VWS V14.01,2013-05-07 03:58:00,